Terminal Aerodrome Forecast
Issued by NWS Bismarck, ND

Home | Current Version | Previous Version | Text Only | Print | Product List | Glossary Off
Versions: 1 2 3 4 5 6 7 8 9 10 11 12 13 14 15 16 17 18 19 20 21 22

357
FTUS43 KBIS 110522
TAFISN
TAF
KISN 110522Z 1106/1206 03004KT 6SM -SN BR OVC009
     FM110900 09005KT 2SM -SN BR OVC008
     FM111800 05006KT 3SM -SN BR OVC008
     FM112300 03005KT P6SM -SN OVC008
     FM120100 02006KT P6SM VCSH OVC015
     FM120300 02006KT P6SM OVC035=

USA.gov is the U.S. government's official web portal to all federal, state and local government web resources and services.